首页
METAR-TAF:

METAR-TAF

机场 :

薩尼亞, 安大略省, 加拿大

纬度: 43-00N, 经度: 082-19W, 海拔: 181米

当前天气观测

该预报发布于1小时和6分钟前的09:00 UTC
风速4节,风向西南
温度 10°C
湿度 66%
气压 1024 hPa
能見度: 14.5公里
天空无云

METAR: CYZR 010900Z AUTO 22004KT 9SM CLR 10/04 A3025 RMK SLP249

时间: 06:06 (10:06 UTC)

预报

该预报发布于2小时和28分钟前的07:38 UTC
预报有效从01日的 08点(UTC)到 01日的 20点(UTC)
风速5节,风向西
能見度: 10公里
少量云层高于8000英尺
成为
从 01日的 15点(UTC)到 01日的 17点(UTC)
风速12节,风向西转西南

TAF: CYZR 010738Z 0108/0120 26005KT P6SM FEW080 BECMG 0115/0117 24012KT RMK FCST BASED ON AUTO OBS. NXT FCST BY 011400Z

超过4000个机场的气象观测和天气预报(METAR&TAF报告)。

可查询的气象台以黄色和红色小点在地图上表示。

将鼠标移到小点上方,可查看气象台名称。

然后点击查看天气观测和预报。

如需切换地图:点击带黑十字的绿色按钮放大地图;点击带横线的绿色按钮缩小地图;或者点击绿色箭头查看邻近地区的地图。


METAR-TAF: